Time;durP1;ratioP1;P1;durP2;ratioP2;P2;SDS_P1;SDS_P2;PMS_P1;PMS_P2;Temp;Humidity;BMP_temperature;BMP_pressure;BME280_temperature;BME280_humidity;BME280_pressure;Samples;Min_cycle;Max_cycle;Signal;HPM_P1;HPM_P2
2023/06/26 00:01:01;;;;;;;8.02;7.20;;;;;;;;;;5010438;28;92231;-79
2023/06/26 00:03:28;;;;;;;8.98;7.68;;;;;;;;;;5007395;28;91986;-78
2023/06/26 00:06:00;;;;;;;7.90;6.53;;;;;;;;;;5025512;28;92896;-78
2023/06/26 00:08:27;;;;;;;;;;;;;;;;;;5006888;28;92098;-78
2023/06/26 00:10:54;;;;;;;13.65;7.32;;;;;;;;;;5000997;28;92065;-78
2023/06/26 00:13:20;;;;;;;8.13;6.93;;;;;;;;;;4997645;28;92488;-77
2023/06/26 00:15:47;;;;;;;8.43;6.97;;;;;;;;;;5003347;28;94836;-78
2023/06/26 00:18:13;;;;;;;13.20;6.57;;;;;;;;;;5005201;28;96167;-78
2023/06/26 00:20:40;;;;;;;9.80;7.28;;;;;;;;;;5004993;28;92247;-78
2023/06/26 00:23:07;;;;;;;7.35;6.65;;;;;;;;;;5010980;28;94366;-78
2023/06/26 00:25:34;;;;;;;8.80;7.03;;;;;;;;;;5005829;28;92678;-77
2023/06/26 00:28:01;;;;;;;7.80;6.82;;;;;;;;;;5004668;28;92435;-77
2023/06/26 00:30:27;;;;;;;10.18;6.07;;;;;;;;;;5003171;28;92848;-77
2023/06/26 00:32:56;;;;;;;9.20;6.35;;;;;;;;;;4995863;28;91589;-78
2023/06/26 00:35:23;;;;;;;8.30;6.55;;;;;;;;;;5006131;28;92908;-78
2023/06/26 00:37:50;;;;;;;14.80;7.10;;;;;;;;;;5009206;28;92827;-78
2023/06/26 00:40:16;;;;;;;7.55;6.68;;;;;;;;;;4998007;28;95071;-78
2023/06/26 00:42:43;;;;;;;6.75;6.05;;;;;;;;;;5003452;28;92510;-78
2023/06/26 00:45:09;;;;;;;6.80;6.03;;;;;;;;;;5012638;28;95138;-78
2023/06/26 00:47:37;;;;;;;10.52;6.25;;;;;;;;;;5015805;28;93987;-78
2023/06/26 00:50:04;;;;;;;7.53;6.68;;;;;;;;;;5003930;28;95818;-78
2023/06/26 00:52:31;;;;;;;5.80;5.30;;;;;;;;;;5015688;28;93216;-78
2023/06/26 00:54:58;;;;;;;7.80;6.45;;;;;;;;;;5006316;28;92857;-78
2023/06/26 00:57:25;;;;;;;8.50;6.20;;;;;;;;;;5011020;28;91814;-78
2023/06/26 00:59:53;;;;;;;9.98;6.65;;;;;;;;;;5011404;28;93491;-78
2023/06/26 01:02:20;;;;;;;6.80;6.20;;;;;;;;;;5009225;28;92385;-78
2023/06/26 01:04:49;;;;;;;7.65;6.07;;;;;;;;;;5019092;28;94906;-78
2023/06/26 01:07:18;;;;;;;6.65;5.53;;;;;;;;;;4988475;28;94342;-78
2023/06/26 01:09:48;;;;;;;10.45;6.43;;;;;;;;;;5024225;28;93099;-79
2023/06/26 01:12:15;;;;;;;7.35;5.97;;;;;;;;;;4993761;28;92953;-78
2023/06/26 01:14:42;;;;;;;8.90;6.28;;;;;;;;;;5005588;28;92362;-78
2023/06/26 01:17:13;;;;;;;14.05;6.82;;;;;;;;;;5004278;28;92910;-79
2023/06/26 01:19:40;;;;;;;;;;;;;;;;;;5000014;28;92868;-79
2023/06/26 01:22:15;;;;;;;7.05;5.93;;;;;;;;;;5004912;28;120033;-79
2023/06/26 01:24:51;;;;;;;10.60;6.80;;;;;;;;;;5004533;28;93634;-79
2023/06/26 01:27:20;;;;;;;8.40;7.05;;;;;;;;;;5006969;28;92019;-79
2023/06/26 01:29:48;;;;;;;8.85;6.10;;;;;;;;;;5006498;28;94739;-79
2023/06/26 01:32:14;;;;;;;7.07;5.93;;;;;;;;;;5012056;28;93864;-79
2023/06/26 01:34:42;;;;;;;12.15;6.18;;;;;;;;;;4999745;28;95171;-79
2023/06/26 01:37:08;;;;;;;6.82;5.80;;;;;;;;;;5001430;28;92227;-79
2023/06/26 01:39:35;;;;;;;7.65;6.47;;;;;;;;;;5008716;28;92491;-79
2023/06/26 01:42:02;;;;;;;9.43;6.10;;;;;;;;;;5003722;28;92393;-79
2023/06/26 01:44:32;;;;;;;12.13;6.40;;;;;;;;;;4998730;28;94225;-78
2023/06/26 01:47:02;;;;;;;8.02;6.50;;;;;;;;;;4993868;28;91865;-79
2023/06/26 01:49:28;;;;;;;6.28;5.40;;;;;;;;;;5013881;28;92331;-78
2023/06/26 01:51:59;;;;;;;7.40;5.32;;;;;;;;;;4990750;28;93693;-78
2023/06/26 01:54:30;;;;;;;8.60;5.00;;;;;;;;;;5009628;28;95960;-78
2023/06/26 01:56:57;;;;;;;7.55;5.50;;;;;;;;;;5009197;28;94130;-79
2023/06/26 01:59:23;;;;;;;8.93;4.82;;;;;;;;;;5014311;28;95004;-78
2023/06/26 02:01:52;;;;;;;6.82;4.60;;;;;;;;;;5007187;28;95826;-78
2023/06/26 02:04:19;;;;;;;6.63;4.85;;;;;;;;;;5004649;28;94699;-79
2023/06/26 02:06:45;;;;;;;10.98;5.15;;;;;;;;;;5011178;28;94852;-78
2023/06/26 02:09:12;;;;;;;6.07;4.15;;;;;;;;;;4995359;28;95898;-79
2023/06/26 02:11:38;;;;;;;11.07;4.82;;;;;;;;;;5007433;28;92068;-78
2023/06/26 02:14:05;;;;;;;7.78;4.65;;;;;;;;;;5007891;28;93922;-79
2023/06/26 02:16:32;;;;;;;6.78;4.32;;;;;;;;;;4991078;28;94296;-79
2023/06/26 02:18:59;;;;;;;11.02;4.45;;;;;;;;;;5015798;28;94884;-79
2023/06/26 02:21:26;;;;;;;12.13;5.55;;;;;;;;;;5008418;28;92381;-80
2023/06/26 02:23:55;;;;;;;6.90;4.07;;;;;;;;;;5003194;28;92672;-79
2023/06/26 02:26:22;;;;;;;11.65;4.40;;;;;;;;;;5010273;28;93833;-79
2023/06/26 02:28:48;;;;;;;12.88;5.55;;;;;;;;;;5006290;28;92333;-79
2023/06/26 02:31:15;;;;;;;10.35;4.50;;;;;;;;;;4991223;28;92638;-79
2023/06/26 02:33:42;;;;;;;11.93;4.20;;;;;;;;;;5007415;28;92398;-78
2023/06/26 02:36:09;;;;;;;11.98;4.72;;;;;;;;;;5010745;28;93195;-78
2023/06/26 02:38:35;;;;;;;16.75;4.70;;;;;;;;;;5009944;28;92342;-78
2023/06/26 02:41:04;;;;;;;12.55;4.22;;;;;;;;;;4991403;28;95045;-78
2023/06/26 02:43:31;;;;;;;9.75;4.47;;;;;;;;;;5004941;28;94934;-78
2023/06/26 02:45:59;;;;;;;11.23;4.65;;;;;;;;;;5008444;28;95243;-78
2023/06/26 02:48:26;;;;;;;9.10;4.13;;;;;;;;;;5014142;28;91964;-78
2023/06/26 02:50:52;;;;;;;12.43;4.13;;;;;;;;;;5009227;28;95854;-78
2023/06/26 02:53:25;;;;;;;11.25;4.75;;;;;;;;;;4991857;28;95721;-78
2023/06/26 02:55:52;;;;;;;15.65;4.35;;;;;;;;;;5009548;28;92863;-78
2023/06/26 02:58:18;;;;;;;11.05;4.30;;;;;;;;;;4993048;28;94603;-78
2023/06/26 03:00:46;;;;;;;14.18;4.15;;;;;;;;;;4999499;28;94464;-78
2023/06/26 03:03:15;;;;;;;16.67;4.90;;;;;;;;;;5007527;28;92890;-78
2023/06/26 03:05:42;;;;;;;14.40;4.68;;;;;;;;;;5009788;28;94171;-78
2023/06/26 03:08:09;;;;;;;11.52;4.68;;;;;;;;;;5000351;28;94941;-78
2023/06/26 03:10:37;;;;;;;12.88;4.72;;;;;;;;;;5003834;28;94338;-78
2023/06/26 03:13:04;;;;;;;11.65;5.22;;;;;;;;;;5006258;28;92272;-78
2023/06/26 03:15:31;;;;;;;17.88;4.80;;;;;;;;;;4997417;28;92357;-78
2023/06/26 03:17:58;;;;;;;11.35;4.07;;;;;;;;;;5004173;28;92534;-78
2023/06/26 03:20:27;;;;;;;13.52;4.13;;;;;;;;;;5004084;28;94449;-78
2023/06/26 03:22:55;;;;;;;12.95;4.45;;;;;;;;;;5004762;28;92266;-78
2023/06/26 03:25:22;;;;;;;9.70;4.00;;;;;;;;;;5013993;28;93447;-78
2023/06/26 03:27:56;;;;;;;12.95;4.25;;;;;;;;;;5003894;28;92491;-78
2023/06/26 03:30:24;;;;;;;16.05;5.18;;;;;;;;;;4994657;28;95143;-78
2023/06/26 03:32:53;;;;;;;15.00;5.35;;;;;;;;;;4990605;28;94921;-78
2023/06/26 03:35:20;;;;;;;16.80;4.65;;;;;;;;;;4992153;28;94707;-78
2023/06/26 03:37:48;;;;;;;18.83;5.22;;;;;;;;;;4998416;28;92605;-78
2023/06/26 03:40:15;;;;;;;14.60;4.22;;;;;;;;;;4992562;28;95335;-78
2023/06/26 03:42:43;;;;;;;17.90;4.72;;;;;;;;;;4998901;28;92749;-78
2023/06/26 03:45:10;;;;;;;15.00;5.65;;;;;;;;;;4995686;28;94303;-79
2023/06/26 03:47:37;;;;;;;12.57;4.32;;;;;;;;;;5010522;28;92374;-78
2023/06/26 03:50:04;;;;;;;21.00;4.78;;;;;;;;;;4997738;28;93841;-78
2023/06/26 03:52:36;;;;;;;19.40;5.30;;;;;;;;;;4993584;28;93750;-79
2023/06/26 03:55:03;;;;;;;16.25;4.68;;;;;;;;;;5003697;28;93049;-78
2023/06/26 03:57:30;;;;;;;18.83;4.60;;;;;;;;;;4996419;28;94751;-78
2023/06/26 03:59:56;;;;;;;14.07;5.20;;;;;;;;;;5009150;28;92746;-78
2023/06/26 04:02:23;;;;;;;21.92;5.15;;;;;;;;;;5007356;28;93358;-79
2023/06/26 04:04:49;;;;;;;18.45;5.28;;;;;;;;;;4991463;28;92496;-78
2023/06/26 04:07:16;;;;;;;14.07;4.28;;;;;;;;;;4982070;28;92549;-79
2023/06/26 04:09:43;;;;;;;24.67;5.47;;;;;;;;;;5004826;28;94833;-78
2023/06/26 04:12:10;;;;;;;16.58;5.43;;;;;;;;;;5008591;28;92467;-78
2023/06/26 04:14:37;;;;;;;21.95;5.07;;;;;;;;;;4994779;28;92164;-78
2023/06/26 04:17:04;;;;;;;16.80;4.82;;;;;;;;;;4994588;28;92361;-78
2023/06/26 04:19:30;;;;;;;13.45;5.25;;;;;;;;;;4987259;28;92199;-78
2023/06/26 04:21:57;;;;;;;21.42;5.90;;;;;;;;;;5002110;28;95780;-78
2023/06/26 04:24:25;;;;;;;20.55;4.50;;;;;;;;;;4997450;28;94074;-78
2023/06/26 04:26:51;;;;;;;16.00;5.28;;;;;;;;;;5000940;28;94307;-78
2023/06/26 04:29:18;;;;;;;16.20;4.80;;;;;;;;;;4969500;28;93134;-78
2023/06/26 04:31:47;;;;;;;17.17;4.97;;;;;;;;;;4991004;28;92486;-78
2023/06/26 04:34:14;;;;;;;13.68;4.63;;;;;;;;;;4990965;28;92974;-78
2023/06/26 04:36:40;;;;;;;16.25;4.53;;;;;;;;;;4984071;28;92495;-78
2023/06/26 04:39:07;;;;;;;16.35;4.82;;;;;;;;;;4991362;28;92240;-78
2023/06/26 04:41:35;;;;;;;15.45;5.15;;;;;;;;;;5009395;28;92133;-78
2023/06/26 04:44:02;;;;;;;9.63;3.97;;;;;;;;;;4987554;28;92393;-78
2023/06/26 04:46:29;;;;;;;20.83;4.85;;;;;;;;;;4996699;28;95433;-78
2023/06/26 04:48:57;;;;;;;16.70;4.45;;;;;;;;;;5000296;28;92413;-78
2023/06/26 04:51:26;;;;;;;12.93;4.32;;;;;;;;;;5005850;28;92302;-78
2023/06/26 04:53:53;;;;;;;15.10;4.78;;;;;;;;;;4998978;28;92834;-77
2023/06/26 04:56:20;;;;;;;16.90;4.78;;;;;;;;;;5002753;28;92461;-79
2023/06/26 04:58:46;;;;;;;14.10;5.63;;;;;;;;;;4996249;28;93958;-79
2023/06/26 05:01:15;;;;;;;17.77;4.60;;;;;;;;;;5010781;28;92452;-78
2023/06/26 05:03:51;;;;;;;14.05;4.63;;;;;;;;;;5009145;28;92268;-79
2023/06/26 05:06:17;;;;;;;13.85;4.20;;;;;;;;;;5019735;28;92352;-79
2023/06/26 05:08:44;;;;;;;13.73;4.18;;;;;;;;;;5020921;28;92560;-80
2023/06/26 05:11:10;;;;;;;11.23;4.43;;;;;;;;;;4995030;28;94720;-79
2023/06/26 05:13:37;;;;;;;14.75;4.18;;;;;;;;;;5010232;28;92609;-79
2023/06/26 05:16:03;;;;;;;12.43;3.65;;;;;;;;;;5017186;28;93422;-79
2023/06/26 05:18:30;;;;;;;11.93;3.58;;;;;;;;;;5010711;28;92412;-79
2023/06/26 05:20:57;;;;;;;7.82;3.80;;;;;;;;;;5018449;28;92581;-79
2023/06/26 05:23:25;;;;;;;11.55;3.88;;;;;;;;;;5016525;28;92440;-79
2023/06/26 05:25:52;;;;;;;9.55;4.10;;;;;;;;;;5011175;28;94622;-80
2023/06/26 05:28:20;;;;;;;12.55;4.30;;;;;;;;;;5009531;28;91900;-80
2023/06/26 05:30:46;;;;;;;13.52;3.92;;;;;;;;;;5009763;28;92965;-79
2023/06/26 05:33:14;;;;;;;8.32;3.28;;;;;;;;;;5011352;28;92471;-79
2023/06/26 05:35:41;;;;;;;7.93;3.75;;;;;;;;;;5013021;28;94829;-79
2023/06/26 05:38:08;;;;;;;8.43;3.53;;;;;;;;;;4994019;28;93447;-80
2023/06/26 05:40:34;;;;;;;11.90;3.50;;;;;;;;;;5000256;28;92479;-79
2023/06/26 05:43:01;;;;;;;9.82;3.88;;;;;;;;;;4993316;28;92769;-80
2023/06/26 05:45:28;;;;;;;7.50;3.00;;;;;;;;;;5014488;28;92399;-79
2023/06/26 05:47:54;;;;;;;10.63;3.42;;;;;;;;;;5010897;28;92541;-80
2023/06/26 05:50:21;;;;;;;5.32;2.53;;;;;;;;;;5018714;28;94034;-80
2023/06/26 05:52:48;;;;;;;9.48;3.40;;;;;;;;;;5012376;28;92268;-79
2023/06/26 05:55:15;;;;;;;13.40;3.53;;;;;;;;;;4985349;28;92396;-79
2023/06/26 05:57:42;;;;;;;9.27;3.08;;;;;;;;;;4990162;28;92437;-80
2023/06/26 06:00:10;;;;;;;8.10;3.08;;;;;;;;;;4999610;28;94736;-79
2023/06/26 06:02:42;;;;;;;9.35;3.50;;;;;;;;;;5011941;28;94096;-79
2023/06/26 06:05:09;;;;;;;5.60;2.72;;;;;;;;;;4992697;28;92364;-80
2023/06/26 06:07:36;;;;;;;7.50;2.50;;;;;;;;;;4993266;28;92939;-79
2023/06/26 06:10:03;;;;;;;8.68;3.35;;;;;;;;;;5016575;28;92892;-78
2023/06/26 06:12:29;;;;;;;5.30;2.60;;;;;;;;;;5014946;28;93028;-79
2023/06/26 06:14:57;;;;;;;7.28;2.78;;;;;;;;;;5015213;28;92751;-80
2023/06/26 06:17:23;;;;;;;4.88;2.75;;;;;;;;;;4993157;28;91881;-80
2023/06/26 06:19:50;;;;;;;6.88;2.28;;;;;;;;;;5022086;28;92420;-80
2023/06/26 06:22:17;;;;;;;4.05;2.22;;;;;;;;;;5013343;28;92486;-80
2023/06/26 06:24:44;;;;;;;5.28;2.25;;;;;;;;;;5017729;28;94502;-80
2023/06/26 06:27:10;;;;;;;7.82;2.30;;;;;;;;;;4989461;28;94671;-80
2023/06/26 06:29:37;;;;;;;7.90;2.30;;;;;;;;;;5008092;28;92433;-80
2023/06/26 06:32:03;;;;;;;6.32;1.80;;;;;;;;;;5007687;28;92502;-80
2023/06/26 06:34:30;;;;;;;6.18;2.38;;;;;;;;;;4987267;28;92595;-80
2023/06/26 06:36:57;;;;;;;3.70;2.20;;;;;;;;;;5014320;28;94018;-80
2023/06/26 06:39:23;;;;;;;7.25;2.65;;;;;;;;;;5002139;28;93419;-80
2023/06/26 06:41:50;;;;;;;9.45;2.42;;;;;;;;;;4998029;28;92059;-80
2023/06/26 06:44:16;;;;;;;6.65;2.50;;;;;;;;;;5013864;28;92975;-80
2023/06/26 06:46:43;;;;;;;4.75;2.70;;;;;;;;;;5007063;28;92500;-80
2023/06/26 06:49:09;;;;;;;5.88;2.92;;;;;;;;;;4997782;28;96391;-80
2023/06/26 06:51:37;;;;;;;4.13;2.40;;;;;;;;;;5009158;28;92271;-80
2023/06/26 06:54:04;;;;;;;6.82;2.38;;;;;;;;;;5008696;28;92345;-80
2023/06/26 06:56:30;;;;;;;7.45;3.20;;;;;;;;;;4997440;28;93174;-80
2023/06/26 06:58:57;;;;;;;7.40;2.28;;;;;;;;;;5016914;28;93002;-80
2023/06/26 07:01:23;;;;;;;6.05;2.08;;;;;;;;;;5012892;28;94260;-80
2023/06/26 07:03:50;;;;;;;7.97;2.58;;;;;;;;;;5018791;28;92467;-80
2023/06/26 07:06:17;;;;;;;3.80;2.60;;;;;;;;;;4995358;28;94539;-80
2023/06/26 07:08:43;;;;;;;6.25;2.67;;;;;;;;;;5018716;28;93372;-80
2023/06/26 07:11:10;;;;;;;5.43;2.08;;;;;;;;;;5005522;28;95508;-80
2023/06/26 07:13:37;;;;;;;3.88;2.05;;;;;;;;;;5002278;28;94825;-80
2023/06/26 07:16:03;;;;;;;11.43;2.70;;;;;;;;;;5012812;28;93946;-81
2023/06/26 07:18:30;;;;;;;7.75;2.58;;;;;;;;;;5011886;28;92776;-80
2023/06/26 07:20:57;;;;;;;8.05;2.60;;;;;;;;;;5012841;28;92992;-80
2023/06/26 07:23:24;;;;;;;7.35;2.50;;;;;;;;;;5000248;28;93057;-79
2023/06/26 07:25:50;;;;;;;13.80;3.65;;;;;;;;;;4998158;28;92486;-79
2023/06/26 07:28:17;;;;;;;8.65;2.72;;;;;;;;;;4978447;28;92097;-79
2023/06/26 07:30:43;;;;;;;7.43;3.28;;;;;;;;;;4997418;28;91983;-79
2023/06/26 07:33:10;;;;;;;8.98;3.03;;;;;;;;;;4995653;28;93120;-79
2023/06/26 07:35:37;;;;;;;6.40;3.00;;;;;;;;;;4994393;28;93527;-79
2023/06/26 07:38:04;;;;;;;6.90;2.67;;;;;;;;;;4976778;28;94850;-79
2023/06/26 07:40:30;;;;;;;5.70;2.40;;;;;;;;;;4996302;28;94499;-79
2023/06/26 07:42:58;;;;;;;7.68;2.70;;;;;;;;;;4984486;28;93202;-80
2023/06/26 07:45:25;;;;;;;7.78;2.95;;;;;;;;;;4983625;28;92217;-79
2023/06/26 07:47:53;;;;;;;5.88;2.63;;;;;;;;;;4991701;28;93595;-79
2023/06/26 07:50:22;;;;;;;5.05;2.58;;;;;;;;;;4997993;28;91995;-79
2023/06/26 07:52:49;;;;;;;16.98;3.22;;;;;;;;;;4978730;28;92434;-79
2023/06/26 07:55:16;;;;;;;4.97;2.35;;;;;;;;;;5003894;28;94149;-80
2023/06/26 07:57:43;;;;;;;14.02;2.97;;;;;;;;;;4999003;28;96158;-80
2023/06/26 08:00:10;;;;;;;5.50;2.95;;;;;;;;;;5004481;28;92501;-80
2023/06/26 08:02:39;;;;;;;14.80;2.45;;;;;;;;;;5004258;28;94249;-80
2023/06/26 08:05:06;;;;;;;7.90;3.03;;;;;;;;;;5017185;28;92150;-79
2023/06/26 08:07:33;;;;;;;11.63;3.42;;;;;;;;;;5003518;28;92300;-80
2023/06/26 08:09:59;;;;;;;8.48;2.90;;;;;;;;;;4988494;28;92473;-81
2023/06/26 08:12:26;;;;;;;13.68;2.50;;;;;;;;;;5002202;28;95048;-79
2023/06/26 08:14:53;;;;;;;8.98;2.65;;;;;;;;;;5000408;28;92780;-79
2023/06/26 08:17:19;;;;;;;9.90;2.85;;;;;;;;;;5013436;28;93109;-80
2023/06/26 08:19:46;;;;;;;5.72;2.90;;;;;;;;;;5008860;28;95478;-80
2023/06/26 08:22:12;;;;;;;8.57;2.63;;;;;;;;;;5022931;28;92533;-80
2023/06/26 08:24:39;;;;;;;9.02;2.55;;;;;;;;;;5007355;28;92179;-80
2023/06/26 08:27:07;;;;;;;7.95;2.83;;;;;;;;;;5006211;28;94321;-80
2023/06/26 08:29:34;;;;;;;6.03;2.47;;;;;;;;;;5011136;28;93666;-79
2023/06/26 08:32:02;;;;;;;7.03;2.17;;;;;;;;;;5007436;28;93219;-80
2023/06/26 08:34:28;;;;;;;9.60;2.25;;;;;;;;;;5015910;28;92309;-80
2023/06/26 08:36:55;;;;;;;13.48;2.25;;;;;;;;;;5006011;28;93247;-79
2023/06/26 08:39:21;;;;;;;8.80;1.60;;;;;;;;;;5013094;28;92553;-79
2023/06/26 08:41:48;;;;;;;7.75;2.25;;;;;;;;;;5003640;28;93006;-79
2023/06/26 08:44:15;;;;;;;7.85;2.17;;;;;;;;;;5009754;28;91909;-80
2023/06/26 08:46:42;;;;;;;7.20;1.70;;;;;;;;;;5014999;28;92998;-79
2023/06/26 08:49:18;;;;;;;6.75;1.90;;;;;;;;;;5013646;28;91987;-79
2023/06/26 08:51:48;;;;;;;7.55;1.42;;;;;;;;;;5004061;28;95606;-79
2023/06/26 08:54:15;;;;;;;5.45;2.03;;;;;;;;;;5010170;28;94559;-78
2023/06/26 08:56:44;;;;;;;9.10;1.83;;;;;;;;;;5004263;28;92398;-79
2023/06/26 08:59:13;;;;;;;6.78;1.50;;;;;;;;;;4989222;28;95881;-80
2023/06/26 09:01:41;;;;;;;5.60;1.58;;;;;;;;;;5013390;28;93904;-79
2023/06/26 09:04:08;;;;;;;9.82;1.83;;;;;;;;;;5012816;28;92234;-81
2023/06/26 09:06:34;;;;;;;7.03;2.22;;;;;;;;;;5013469;28;92445;-79
2023/06/26 09:09:01;;;;;;;6.85;1.70;;;;;;;;;;5006457;28;91882;-80
2023/06/26 09:11:27;;;;;;;11.00;1.85;;;;;;;;;;5004100;28;92432;-80
2023/06/26 09:13:55;;;;;;;9.43;2.38;;;;;;;;;;5002159;28;92417;-79
2023/06/26 09:16:27;;;;;;;5.32;1.42;;;;;;;;;;4992038;28;94752;-79
2023/06/26 09:18:55;;;;;;;4.03;1.17;;;;;;;;;;4994209;28;92471;-79
2023/06/26 09:21:24;;;;;;;5.75;1.98;;;;;;;;;;5012282;28;93666;-79
2023/06/26 09:23:52;;;;;;;11.68;1.95;;;;;;;;;;5008829;28;92490;-79
2023/06/26 09:26:18;;;;;;;6.07;1.60;;;;;;;;;;4994585;28;93370;-79
2023/06/26 09:28:45;;;;;;;8.23;1.10;;;;;;;;;;5008723;28;94368;-80
2023/06/26 09:31:12;;;;;;;5.47;1.52;;;;;;;;;;5007995;28;92031;-80
2023/06/26 09:33:47;;;;;;;5.57;2.17;;;;;;;;;;5007162;28;92198;-80
2023/06/26 09:36:21;;;;;;;8.35;1.58;;;;;;;;;;5012045;28;94110;-80
2023/06/26 09:38:48;;;;;;;5.38;3.50;;;;;;;;;;5001586;28;92683;-80
2023/06/26 09:41:15;;;;;;;7.20;2.42;;;;;;;;;;5016979;28;94592;-79
2023/06/26 09:43:49;;;;;;;9.27;1.40;;;;;;;;;;4993429;28;92450;-80
2023/06/26 09:46:26;;;;;;;7.25;1.55;;;;;;;;;;5021120;28;92931;-80
2023/06/26 09:49:07;;;;;;;8.20;1.80;;;;;;;;;;5002102;28;92027;-79
2023/06/26 09:51:34;;;;;;;5.13;2.00;;;;;;;;;;5010014;28;93670;-80
2023/06/26 09:54:02;;;;;;;5.65;2.08;;;;;;;;;;5010995;28;92525;-80
2023/06/26 09:56:29;;;;;;;3.75;1.50;;;;;;;;;;5017997;28;93451;-80
2023/06/26 09:58:57;;;;;;;6.28;1.38;;;;;;;;;;5013958;28;92865;-80
2023/06/26 10:01:24;;;;;;;4.53;1.52;;;;;;;;;;5010121;28;92389;-80
2023/06/26 10:03:51;;;;;;;3.45;1.20;;;;;;;;;;5018381;28;92128;-80
2023/06/26 10:06:19;;;;;;;7.35;2.15;;;;;;;;;;5003832;28;94731;-80
2023/06/26 10:08:46;;;;;;;4.88;1.83;;;;;;;;;;5020038;28;93900;-80
2023/06/26 10:11:16;;;;;;;15.00;1.70;;;;;;;;;;5012399;28;92474;-79
2023/06/26 10:13:46;;;;;;;4.22;1.58;;;;;;;;;;5015272;28;92367;-80
2023/06/26 10:16:15;;;;;;;9.57;1.65;;;;;;;;;;5017322;28;92660;-81
2023/06/26 10:18:43;;;;;;;4.90;1.15;;;;;;;;;;5018379;28;92031;-79
2023/06/26 10:21:10;;;;;;;8.05;1.60;;;;;;;;;;5005561;28;93305;-79
2023/06/26 10:23:39;;;;;;;5.28;1.50;;;;;;;;;;4994711;28;92008;-80
2023/06/26 10:26:06;;;;;;;2.67;1.20;;;;;;;;;;5020124;28;92456;-80
2023/06/26 10:28:33;;;;;;;2.72;1.10;;;;;;;;;;5001272;28;93373;-79
2023/06/26 10:31:01;;;;;;;4.38;1.25;;;;;;;;;;5002500;28;95452;-80
2023/06/26 10:33:28;;;;;;;5.88;1.38;;;;;;;;;;5017473;28;92403;-80
2023/06/26 10:36:11;;;;;;;3.88;1.10;;;;;;;;;;5001995;28;92448;-79
2023/06/26 10:38:51;;;;;;;9.68;1.42;;;;;;;;;;4993585;28;92443;-80
2023/06/26 10:41:24;;;;;;;7.20;1.48;;;;;;;;;;4991661;28;92394;-80
2023/06/26 10:44:06;;;;;;;1.63;1.00;;;;;;;;;;5000189;28;92971;-80
2023/06/26 10:46:47;;;;;;;2.83;1.20;;;;;;;;;;5012367;28;92675;-79
2023/06/26 10:49:14;;;;;;;8.13;1.20;;;;;;;;;;5010893;28;92968;-79
2023/06/26 10:51:46;;;;;;;8.07;1.30;;;;;;;;;;5008193;28;94737;-80
2023/06/26 10:54:14;;;;;;;1.77;1.05;;;;;;;;;;5006774;28;95648;-81
2023/06/26 10:56:42;;;;;;;3.08;1.20;;;;;;;;;;5013489;28;94837;-80
2023/06/26 10:59:19;;;;;;;1.75;1.08;;;;;;;;;;5006138;28;93184;-81
2023/06/26 11:01:53;;;;;;;2.97;1.02;;;;;;;;;;5021184;28;92784;-80
2023/06/26 11:04:35;;;;;;;9.05;0.80;;;;;;;;;;5009533;28;92643;-81
2023/06/26 11:07:21;;;;;;;2.70;1.13;;;;;;;;;;5010334;28;92495;-81
2023/06/26 11:09:57;;;;;;;3.00;1.10;;;;;;;;;;4996825;28;92553;-79
2023/06/26 11:12:37;;;;;;;4.28;1.40;;;;;;;;;;5013912;28;93997;-80
2023/06/26 11:15:13;;;;;;;6.25;1.10;;;;;;;;;;4993858;28;94945;-80
2023/06/26 11:17:41;;;;;;;2.30;0.90;;;;;;;;;;5003356;28;92388;-79
2023/06/26 11:20:08;;;;;;;4.95;1.17;;;;;;;;;;5000166;28;95774;-81
2023/06/26 11:22:37;;;;;;;13.10;1.23;;;;;;;;;;4985894;28;94823;-80
2023/06/26 11:25:05;;;;;;;8.63;1.48;;;;;;;;;;4991362;28;92751;-81
2023/06/26 11:27:32;;;;;;;3.30;1.13;;;;;;;;;;4986486;28;92571;-81
2023/06/26 11:29:59;;;;;;;7.60;1.48;;;;;;;;;;4981506;28;92526;-81
2023/06/26 11:32:28;;;;;;;5.75;1.50;;;;;;;;;;4995962;28;92593;-81
2023/06/26 11:34:55;;;;;;;5.13;1.23;;;;;;;;;;4996369;28;92993;-80
2023/06/26 11:37:22;;;;;;;2.30;1.00;;;;;;;;;;4995838;28;92453;-80
2023/06/26 11:39:50;;;;;;;3.38;1.00;;;;;;;;;;4998660;28;94641;-80
2023/06/26 11:42:20;;;;;;;4.07;1.30;;;;;;;;;;4993310;28;92580;-80
2023/06/26 11:44:46;;;;;;;9.77;1.02;;;;;;;;;;5000263;28;92331;-81
2023/06/26 11:47:20;;;;;;;7.88;1.23;;;;;;;;;;4985390;28;94645;-80
2023/06/26 11:49:47;;;;;;;4.53;1.17;;;;;;;;;;5005004;28;93908;-81
2023/06/26 11:52:14;;;;;;;2.60;0.95;;;;;;;;;;5002671;28;92978;-80
2023/06/26 11:54:41;;;;;;;2.55;1.30;;;;;;;;;;4998237;28;92221;-81
2023/06/26 11:57:08;;;;;;;7.43;1.35;;;;;;;;;;5000636;28;93583;-80
2023/06/26 11:59:36;;;;;;;1.85;1.08;;;;;;;;;;5028248;28;94009;-80
2023/06/26 12:02:06;;;;;;;2.55;1.10;;;;;;;;;;5003084;28;92481;-80
2023/06/26 12:04:35;;;;;;;6.45;1.58;;;;;;;;;;5000073;28;92115;-80
2023/06/26 12:07:03;;;;;;;4.13;1.10;;;;;;;;;;5011061;28;92398;-80
2023/06/26 12:09:33;;;;;;;8.80;1.02;;;;;;;;;;5003660;28;92643;-81
2023/06/26 12:12:00;;;;;;;2.10;1.00;;;;;;;;;;5002614;28;95580;-80
2023/06/26 12:14:28;;;;;;;2.47;0.93;;;;;;;;;;5000496;28;96158;-81
2023/06/26 12:16:55;;;;;;;3.22;1.00;;;;;;;;;;5013985;28;92455;-81
2023/06/26 12:19:27;;;;;;;3.25;0.80;;;;;;;;;;5001621;28;94470;-80
2023/06/26 12:21:56;;;;;;;18.30;1.25;;;;;;;;;;4994928;28;92439;-81
2023/06/26 12:24:23;;;;;;;3.03;0.85;;;;;;;;;;5004326;28;92108;-81
2023/06/26 12:26:53;;;;;;;2.03;0.75;;;;;;;;;;5005530;28;92453;-81
2023/06/26 12:29:20;;;;;;;3.83;1.30;;;;;;;;;;4993954;28;92024;-81
2023/06/26 12:31:52;;;;;;;2.75;0.90;;;;;;;;;;5009020;28;94990;-80
2023/06/26 12:34:27;;;;;;;3.30;0.80;;;;;;;;;;4994421;28;94832;-82
2023/06/26 12:36:59;;;;;;;3.70;0.70;;;;;;;;;;4985402;28;94460;-81
2023/06/26 12:39:27;;;;;;;2.15;0.90;;;;;;;;;;4993431;28;92589;-81
2023/06/26 12:41:54;;;;;;;12.43;0.70;;;;;;;;;;5006076;28;92935;-81
2023/06/26 12:44:26;;;;;;;5.47;0.80;;;;;;;;;;5007749;28;92524;-81
2023/06/26 12:47:15;;;;;;;5.80;1.00;;;;;;;;;;4997796;28;93647;-82
2023/06/26 12:49:43;;;;;;;4.10;0.90;;;;;;;;;;4991521;28;92364;-81
2023/06/26 12:52:14;;;;;;;6.53;1.30;;;;;;;;;;5005096;28;92477;-80
2023/06/26 12:54:41;;;;;;;3.30;1.00;;;;;;;;;;5009078;28;92884;-81
2023/06/26 12:57:09;;;;;;;0.88;0.73;;;;;;;;;;4995420;28;92430;-81
2023/06/26 12:59:36;;;;;;;2.55;0.70;;;;;;;;;;5016902;28;94021;-80
2023/06/26 13:02:03;;;;;;;4.63;0.85;;;;;;;;;;4997051;28;94767;-80
2023/06/26 13:04:30;;;;;;;2.90;1.15;;;;;;;;;;5000615;28;93967;-81
2023/06/26 13:06:57;;;;;;;2.00;0.90;;;;;;;;;;5013238;28;93209;-81
2023/06/26 13:09:24;;;;;;;4.72;0.70;;;;;;;;;;4998377;28;95114;-81
2023/06/26 13:11:52;;;;;;;4.88;0.93;;;;;;;;;;5014441;28;92043;-81
2023/06/26 13:14:18;;;;;;;5.38;0.57;;;;;;;;;;5009551;28;93440;-81
2023/06/26 13:16:45;;;;;;;8.85;0.80;;;;;;;;;;4997301;28;92460;-80
2023/06/26 13:19:12;;;;;;;3.72;0.80;;;;;;;;;;4991588;28;92218;-81
2023/06/26 13:21:38;;;;;;;3.47;0.90;;;;;;;;;;5002316;28;94940;-81
2023/06/26 13:24:05;;;;;;;11.50;1.95;;;;;;;;;;4998326;28;93176;-80
2023/06/26 13:26:32;;;;;;;3.00;0.90;;;;;;;;;;5001505;28;94907;-80
2023/06/26 13:29:02;;;;;;;5.45;0.90;;;;;;;;;;4991439;28;92532;-81
2023/06/26 13:31:28;;;;;;;3.05;0.90;;;;;;;;;;5008157;28;92439;-81
2023/06/26 13:33:56;;;;;;;2.58;0.85;;;;;;;;;;5006463;28;92483;-81
2023/06/26 13:36:24;;;;;;;5.53;1.30;;;;;;;;;;4996528;28;92432;-81
2023/06/26 13:38:55;;;;;;;4.28;1.75;;;;;;;;;;4991253;28;92592;-81
2023/06/26 13:41:23;;;;;;;4.03;1.15;;;;;;;;;;4994227;28;92875;-81
2023/06/26 13:43:49;;;;;;;2.88;0.68;;;;;;;;;;5006406;28;94510;-81
2023/06/26 13:46:17;;;;;;;2.83;0.70;;;;;;;;;;5006453;28;92963;-80
2023/06/26 13:48:44;;;;;;;3.10;0.70;;;;;;;;;;5005692;28;92460;-81
2023/06/26 13:51:11;;;;;;;9.23;0.95;;;;;;;;;;5004281;28;94896;-80
2023/06/26 13:53:38;;;;;;;2.80;0.80;;;;;;;;;;5010543;28;92100;-80
2023/06/26 13:56:04;;;;;;;3.75;0.82;;;;;;;;;;5009832;28;93007;-80
2023/06/26 13:58:33;;;;;;;3.63;0.77;;;;;;;;;;5006256;28;92099;-80
2023/06/26 14:01:00;;;;;;;4.20;1.23;;;;;;;;;;5013633;28;91846;-80
2023/06/26 14:03:27;;;;;;;1.48;0.82;;;;;;;;;;4995197;28;93796;-80
2023/06/26 14:05:54;;;;;;;3.35;1.00;;;;;;;;;;5011779;28;92257;-81
2023/06/26 14:08:20;;;;;;;2.78;1.08;;;;;;;;;;5012036;28;91952;-81
2023/06/26 14:10:47;;;;;;;3.70;0.77;;;;;;;;;;5003542;28;92661;-81
2023/06/26 14:13:15;;;;;;;3.35;0.77;;;;;;;;;;5000398;28;92270;-80
2023/06/26 14:15:42;;;;;;;4.10;1.27;;;;;;;;;;5006866;28;94284;-81
2023/06/26 14:18:09;;;;;;;4.78;0.95;;;;;;;;;;5002965;28;92319;-80
2023/06/26 14:20:35;;;;;;;2.97;1.20;;;;;;;;;;4997773;28;93138;-81
2023/06/26 14:23:03;;;;;;;2.95;0.68;;;;;;;;;;4996276;28;92256;-81
2023/06/26 14:25:30;;;;;;;3.67;1.00;;;;;;;;;;4993435;28;92465;-81
2023/06/26 14:27:57;;;;;;;3.22;0.85;;;;;;;;;;5003368;28;94101;-80
2023/06/26 14:30:23;;;;;;;2.10;0.77;;;;;;;;;;5016712;28;92228;-80
2023/06/26 14:32:50;;;;;;;2.80;1.00;;;;;;;;;;5012209;28;92789;-81
2023/06/26 14:35:17;;;;;;;3.40;0.73;;;;;;;;;;5019158;28;92980;-80
2023/06/26 14:37:44;;;;;;;11.57;0.77;;;;;;;;;;5018996;28;92317;-81
2023/06/26 14:40:11;;;;;;;3.75;1.05;;;;;;;;;;5005995;28;94513;-81
2023/06/26 14:42:38;;;;;;;2.33;1.00;;;;;;;;;;5015352;28;95952;-81
2023/06/26 14:45:06;;;;;;;3.72;0.90;;;;;;;;;;5023353;28;92364;-81